Terminal Aerodrome Forecast
Issued by NWS

Home | Current Version | Previous Version | Text Only | Print | Product List | Glossary Off
Versions: 1 2 3 4 5 6 7 8 9 10 11 12

000
FTUS43 KBIS 060521
TAFMOT
TAF
KMOT 060521Z 0606/0706 14006KT P6SM BKN200
     FM061700 14010KT 5SM SHRA BR SCT008 OVC030
     FM070500 34010KT 5SM -SHRA SCT010 OVC030=

USA.gov is the U.S. government's official web portal to all federal, state and local government web resources and services.